createdAt,value
2018-08-30T00:01:27.000Z,960.8
2018-08-30T00:06:40.000Z,960.8
2018-08-30T00:17:04.000Z,960.9
2018-08-30T00:22:16.000Z,960.9
2018-08-30T00:27:28.000Z,960.9
2018-08-30T00:32:40.000Z,960.9
2018-08-30T00:37:52.000Z,961
2018-08-30T00:43:04.000Z,961
2018-08-30T00:48:16.000Z,961.1
2018-08-30T00:53:28.000Z,961.1
2018-08-30T00:58:40.000Z,961
2018-08-30T01:09:04.000Z,961.1
2018-08-30T01:14:16.000Z,961.2
2018-08-30T01:19:28.000Z,961.2
2018-08-30T01:24:41.000Z,961.1
2018-08-30T01:29:53.000Z,961.2
2018-08-30T01:35:05.000Z,961.2
2018-08-30T01:40:17.000Z,961.3
2018-08-30T01:45:29.000Z,961.3
2018-08-30T01:50:41.000Z,961.3
2018-08-30T02:01:05.000Z,961.3
2018-08-30T02:06:17.000Z,961.3
2018-08-30T02:11:29.000Z,961.3
2018-08-30T02:16:41.000Z,961.3
2018-08-30T02:21:53.000Z,961.4
2018-08-30T02:27:05.000Z,961.4
2018-08-30T02:32:17.000Z,961.4
2018-08-30T02:37:29.000Z,961.3
2018-08-30T02:42:42.000Z,961.3
2018-08-30T02:53:06.000Z,961.2
2018-08-30T02:58:18.000Z,961.2
2018-08-30T03:03:30.000Z,961.2
2018-08-30T03:08:42.000Z,961.2
2018-08-30T03:13:54.000Z,961.1
2018-08-30T03:19:06.000Z,961.2
2018-08-30T03:24:18.000Z,961.2
2018-08-30T03:29:30.000Z,961.3
2018-08-30T03:34:42.000Z,961.3
2018-08-30T03:39:54.000Z,961.2
2018-08-30T03:45:06.000Z,961.4
2018-08-30T03:50:18.000Z,961.3
2018-08-30T03:55:30.000Z,961.3
2018-08-30T04:00:42.000Z,961.3
2018-08-30T04:05:55.000Z,961.2
2018-08-30T04:11:07.000Z,961.3
2018-08-30T04:16:19.000Z,961.3
2018-08-30T04:21:31.000Z,961.3
2018-08-30T04:26:43.000Z,961.2
2018-08-30T04:37:07.000Z,961.3
2018-08-30T04:42:19.000Z,961.4
2018-08-30T04:47:31.000Z,961.4
2018-08-30T04:52:43.000Z,961.3
2018-08-30T04:57:55.000Z,961.4
2018-08-30T05:03:07.000Z,961.6
2018-08-30T05:08:19.000Z,961.6
2018-08-30T05:13:31.000Z,961.7
2018-08-30T05:18:43.000Z,961.7
2018-08-30T05:23:55.000Z,961.7
2018-08-30T05:29:08.000Z,961.7
2018-08-30T05:34:20.000Z,961.8
2018-08-30T05:39:32.000Z,961.8
2018-08-30T05:44:44.000Z,961.8
2018-08-30T05:49:56.000Z,961.8
2018-08-30T05:55:08.000Z,961.9
2018-08-30T06:00:20.000Z,961.9
2018-08-30T06:05:32.000Z,961.9
2018-08-30T06:10:44.000Z,961.9
2018-08-30T06:21:08.000Z,962
2018-08-30T06:26:20.000Z,962
2018-08-30T06:31:32.000Z,962.2
2018-08-30T06:36:44.000Z,962.2
2018-08-30T06:41:56.000Z,962.3
2018-08-30T06:47:09.000Z,962.4
2018-08-30T06:52:21.000Z,962.5
2018-08-30T06:57:33.000Z,962.5
2018-08-30T07:02:45.000Z,962.6
2018-08-30T07:07:57.000Z,962.6
2018-08-30T07:13:09.000Z,962.6
2018-08-30T07:18:21.000Z,962.6
2018-08-30T07:23:33.000Z,962.6
2018-08-30T07:28:45.000Z,962.6
2018-08-30T07:33:57.000Z,962.7
2018-08-30T07:39:09.000Z,962.8
2018-08-30T07:44:21.000Z,962.7
2018-08-30T07:49:33.000Z,962.9
2018-08-30T07:54:45.000Z,962.9
2018-08-30T08:05:09.000Z,963
2018-08-30T08:10:22.000Z,963.1
2018-08-30T08:15:34.000Z,963.1
2018-08-30T08:20:46.000Z,963.2
2018-08-30T08:25:58.000Z,963.2
2018-08-30T08:31:10.000Z,963.2
2018-08-30T08:36:22.000Z,963.2
2018-08-30T08:41:34.000Z,963.3
2018-08-30T08:51:58.000Z,963.4
2018-08-30T08:57:10.000Z,963.3
2018-08-30T09:02:22.000Z,963.4
2018-08-30T09:07:34.000Z,963.4
2018-08-30T09:12:46.000Z,963.4
2018-08-30T09:17:58.000Z,963.5
2018-08-30T09:23:10.000Z,963.5
2018-08-30T09:28:22.000Z,963.4
2018-08-30T09:33:35.000Z,963.4
2018-08-30T09:38:47.000Z,963.4
2018-08-30T09:43:59.000Z,963.5
2018-08-30T09:49:11.000Z,963.5
2018-08-30T09:54:23.000Z,963.5
2018-08-30T09:59:35.000Z,963.4
2018-08-30T10:04:47.000Z,963.4
2018-08-30T10:09:59.000Z,963.4
2018-08-30T10:15:11.000Z,963.4
2018-08-30T10:20:23.000Z,963.4
2018-08-30T10:25:35.000Z,963.4
2018-08-30T10:30:47.000Z,963.4
2018-08-30T10:35:59.000Z,963.4
2018-08-30T10:41:11.000Z,963.5
2018-08-30T10:46:23.000Z,963.4
2018-08-30T10:51:36.000Z,963.4
2018-08-30T10:56:48.000Z,963.3
2018-08-30T11:02:00.000Z,963.4
2018-08-30T11:07:12.000Z,963.3
2018-08-30T11:12:24.000Z,963.3
2018-08-30T11:17:36.000Z,963.3
2018-08-30T11:22:48.000Z,963.3
2018-08-30T11:33:12.000Z,963.2
2018-08-30T11:38:24.000Z,963.3
2018-08-30T11:43:36.000Z,963.3
2018-08-30T11:48:48.000Z,963.3
2018-08-30T11:54:00.000Z,963.3
2018-08-30T11:59:12.000Z,963.3
2018-08-30T12:04:24.000Z,963.2
2018-08-30T12:09:36.000Z,963.2
2018-08-30T12:14:49.000Z,963.2
2018-08-30T12:25:13.000Z,963.3
2018-08-30T12:30:25.000Z,963.3
2018-08-30T12:35:37.000Z,963.3
2018-08-30T12:40:49.000Z,963.3
2018-08-30T12:46:01.000Z,963.2
2018-08-30T12:51:13.000Z,963.2
2018-08-30T12:56:25.000Z,963.2
2018-08-30T13:01:37.000Z,963.1
2018-08-30T13:06:49.000Z,963.1
2018-08-30T13:17:13.000Z,963
2018-08-30T13:22:25.000Z,963
2018-08-30T13:27:37.000Z,963
2018-08-30T13:32:50.000Z,962.9
2018-08-30T13:38:02.000Z,962.9
2018-08-30T13:43:14.000Z,962.9
2018-08-30T13:48:26.000Z,962.9
2018-08-30T13:53:38.000Z,962.9
2018-08-30T13:58:50.000Z,962.8
2018-08-30T14:04:02.000Z,962.8
2018-08-30T14:14:26.000Z,962.7
2018-08-30T14:19:38.000Z,962.6
2018-08-30T14:24:50.000Z,962.6
2018-08-30T14:30:02.000Z,962.6
2018-08-30T14:35:14.000Z,962.6
2018-08-30T14:40:26.000Z,962.5
2018-08-30T14:45:38.000Z,962.5
2018-08-30T14:50:51.000Z,962.5
2018-08-30T15:01:15.000Z,962.5
2018-08-30T15:06:27.000Z,962.5
2018-08-30T15:11:39.000Z,962.5
2018-08-30T15:16:51.000Z,962.5
2018-08-30T15:22:03.000Z,962.6
2018-08-30T15:27:15.000Z,962.6
2018-08-30T15:32:27.000Z,962.6
2018-08-30T15:37:39.000Z,962.6
2018-08-30T15:42:51.000Z,962.7
2018-08-30T15:48:03.000Z,962.7
2018-08-30T15:53:15.000Z,962.7
2018-08-30T15:58:27.000Z,962.6
2018-08-30T16:03:39.000Z,962.6
2018-08-30T16:08:51.000Z,962.6
2018-08-30T16:14:04.000Z,962.5
2018-08-30T16:19:16.000Z,962.5
2018-08-30T16:24:28.000Z,962.5
2018-08-30T16:29:40.000Z,962.5
2018-08-30T16:34:52.000Z,962.5
2018-08-30T16:45:16.000Z,962.4
2018-08-30T16:50:28.000Z,962.4
2018-08-30T16:55:40.000Z,962.4
2018-08-30T17:00:52.000Z,962.4
2018-08-30T17:06:04.000Z,962.4
2018-08-30T17:11:16.000Z,962.4
2018-08-30T17:16:28.000Z,962.4
2018-08-30T17:21:40.000Z,962.4
2018-08-30T17:26:52.000Z,962.4
2018-08-30T17:37:17.000Z,962.3
2018-08-30T17:42:29.000Z,962.2
2018-08-30T17:47:41.000Z,962.3
2018-08-30T17:52:53.000Z,962.2
2018-08-30T17:58:05.000Z,962.2
2018-08-30T18:03:17.000Z,962.2
2018-08-30T18:08:29.000Z,962.2
2018-08-30T18:13:41.000Z,962.3
2018-08-30T18:18:53.000Z,962.3
2018-08-30T18:29:17.000Z,962.4
2018-08-30T18:34:29.000Z,962.4
2018-08-30T18:39:41.000Z,962.4
2018-08-30T18:44:53.000Z,962.4
2018-08-30T18:50:06.000Z,962.5
2018-08-30T18:55:18.000Z,962.5
2018-08-30T19:00:30.000Z,962.5
2018-08-30T19:05:42.000Z,962.5
2018-08-30T19:10:54.000Z,962.5
2018-08-30T19:21:18.000Z,962.5
2018-08-30T19:26:30.000Z,962.4
2018-08-30T19:31:42.000Z,962.6
2018-08-30T19:36:54.000Z,962.6
2018-08-30T19:42:06.000Z,962.6
2018-08-30T19:47:18.000Z,962.5
2018-08-30T19:52:30.000Z,962.6
2018-08-30T19:57:42.000Z,962.6
2018-08-30T20:02:54.000Z,962.6
2018-08-30T20:13:19.000Z,962.5
2018-08-30T20:18:31.000Z,962.5
2018-08-30T20:23:43.000Z,962.4
2018-08-30T20:28:55.000Z,962.4
2018-08-30T20:34:07.000Z,962.4
2018-08-30T20:39:19.000Z,962.4
2018-08-30T20:44:31.000Z,962.3
2018-08-30T20:49:43.000Z,962.2
2018-08-30T20:54:55.000Z,962.1
2018-08-30T21:05:19.000Z,962.2
2018-08-30T21:10:31.000Z,962.2
2018-08-30T21:15:43.000Z,961.9
2018-08-30T21:20:55.000Z,962
2018-08-30T21:26:07.000Z,961.9
2018-08-30T21:31:20.000Z,962
2018-08-30T21:36:32.000Z,961.9
2018-08-30T21:41:44.000Z,961.9
2018-08-30T21:46:56.000Z,961.9
2018-08-30T21:57:20.000Z,961.9
2018-08-30T22:02:32.000Z,961.7
2018-08-30T22:12:56.000Z,961.7
2018-08-30T22:18:08.000Z,961.6
2018-08-30T22:23:20.000Z,961.6
2018-08-30T22:28:32.000Z,961.5
2018-08-30T22:33:44.000Z,961.6
2018-08-30T22:38:56.000Z,961.5
2018-08-30T22:44:08.000Z,961.6
2018-08-30T22:49:21.000Z,961.6
2018-08-30T22:54:33.000Z,961.7
2018-08-30T22:59:45.000Z,961.6
2018-08-30T23:04:57.000Z,961.7
2018-08-30T23:10:09.000Z,961.7
2018-08-30T23:15:21.000Z,961.6
2018-08-30T23:20:33.000Z,961.4
2018-08-30T23:25:45.000Z,961.4
2018-08-30T23:30:57.000Z,961.4
2018-08-30T23:41:21.000Z,961.3
2018-08-30T23:46:33.000Z,961.3
2018-08-30T23:51:45.000Z,961.3
2018-08-30T23:56:57.000Z,961.3
